createdAt,value
2022-11-03T00:02:04.781Z,7.67
2022-11-03T00:04:39.575Z,7.47
2022-11-03T00:07:32.955Z,7.33
2022-11-03T00:10:02.832Z,7.50
2022-11-03T00:12:37.221Z,7.77
2022-11-03T00:15:11.189Z,7.00
2022-11-03T00:17:48.500Z,7.40
2022-11-03T00:20:20.241Z,5.97
2022-11-03T00:22:52.613Z,5.73
2022-11-03T00:25:21.492Z,6.23
2022-11-03T00:27:57.353Z,6.37
2022-11-03T00:30:25.701Z,5.60
2022-11-03T00:32:54.659Z,6.00
2022-11-03T00:35:23.369Z,6.40
2022-11-03T00:37:52.880Z,5.73
2022-11-03T00:40:23.426Z,5.80
2022-11-03T00:42:52.948Z,5.90
2022-11-03T00:45:21.310Z,5.67
2022-11-03T00:48:07.476Z,5.77
2022-11-03T00:51:17.651Z,5.80
2022-11-03T00:57:08.813Z,5.67
2022-11-03T00:59:46.841Z,5.33
2022-11-03T01:02:15.399Z,6.37
2022-11-03T01:21:12.580Z,4.80
2022-11-03T01:23:42.604Z,5.00
2022-11-03T01:26:13.094Z,5.70
2022-11-03T01:28:43.694Z,4.60
2022-11-03T01:31:16.498Z,6.00
2022-11-03T01:33:46.778Z,5.30
2022-11-03T01:36:15.947Z,5.50
2022-11-03T01:39:15.117Z,5.17
2022-11-03T01:42:03.882Z,4.73
2022-11-03T01:44:35.728Z,4.17
2022-11-03T01:47:28.550Z,4.10
2022-11-03T01:50:07.057Z,4.20
2022-11-03T01:52:41.995Z,4.10
2022-11-03T01:55:14.611Z,4.10
2022-11-03T01:58:13.014Z,3.90
2022-11-03T02:00:47.557Z,4.17
2022-11-03T02:03:18.566Z,4.00
2022-11-03T02:05:51.696Z,3.90
2022-11-03T02:08:26.136Z,3.60
2022-11-03T02:10:54.266Z,4.17
2022-11-03T02:13:48.782Z,4.00
2022-11-03T02:16:48.707Z,3.80
2022-11-03T02:32:09.065Z,4.40
2022-11-03T02:39:14.271Z,5.33
2022-11-03T02:41:44.691Z,4.90
2022-11-03T02:45:20.047Z,5.40
2022-11-03T02:48:25.390Z,5.27
2022-11-03T02:55:24.506Z,4.87
2022-11-03T03:01:47.325Z,5.23
2022-11-03T03:04:22.750Z,4.93
2022-11-03T03:06:54.772Z,5.23
2022-11-03T03:13:21.125Z,4.77
2022-11-03T03:21:40.172Z,5.67
2022-11-03T03:24:22.559Z,5.87
2022-11-03T03:27:11.475Z,6.00
2022-11-03T03:29:44.669Z,6.97
2022-11-03T03:32:18.071Z,6.43
2022-11-03T03:34:53.589Z,6.17
2022-11-03T03:37:34.284Z,6.93
2022-11-03T03:40:08.727Z,6.67
2022-11-03T03:42:38.511Z,6.40
2022-11-03T03:45:10.802Z,7.73
2022-11-03T03:47:45.455Z,6.77
2022-11-03T03:50:14.774Z,7.50
2022-11-03T03:52:45.012Z,7.30
2022-11-03T03:55:20.614Z,8.27
2022-11-03T03:57:57.969Z,7.10
2022-11-03T04:00:31.889Z,7.43
2022-11-03T04:03:00.774Z,8.13
2022-11-03T04:05:29.074Z,8.07
2022-11-03T04:08:06.641Z,9.40
2022-11-03T04:10:36.772Z,8.43
2022-11-03T04:13:23.021Z,8.57
2022-11-03T04:16:09.432Z,7.07
2022-11-03T04:18:57.729Z,8.00
2022-11-03T04:21:45.032Z,7.90
2022-11-03T04:24:18.275Z,7.57
2022-11-03T04:26:48.618Z,8.00
2022-11-03T04:29:16.876Z,7.13
2022-11-03T04:31:45.973Z,8.07
2022-11-03T04:40:56.409Z,7.47
2022-11-03T04:47:18.516Z,8.47
2022-11-03T04:49:48.913Z,8.03
2022-11-03T04:52:40.443Z,8.30
2022-11-03T04:55:48.145Z,7.67
2022-11-03T04:58:21.440Z,8.13
2022-11-03T05:00:57.385Z,8.30
2022-11-03T05:03:32.739Z,8.40
2022-11-03T05:06:38.733Z,8.67
2022-11-03T05:09:17.485Z,8.30
2022-11-03T05:11:48.788Z,8.50
2022-11-03T05:14:21.118Z,8.70
2022-11-03T05:16:53.652Z,8.70
2022-11-03T05:19:25.838Z,9.13
2022-11-03T05:21:55.908Z,8.80
2022-11-03T05:24:28.153Z,8.70
2022-11-03T05:27:00.780Z,10.77
2022-11-03T05:29:41.000Z,10.10
2022-11-03T05:32:16.611Z,9.83
2022-11-03T05:34:48.930Z,16.67
2022-11-03T05:37:40.194Z,27.17
2022-11-03T05:40:21.412Z,32.47
2022-11-03T05:42:54.954Z,34.53
2022-11-03T05:45:26.987Z,23.97
2022-11-03T05:48:01.601Z,25.80
2022-11-03T05:51:00.560Z,23.63
2022-11-03T05:53:33.924Z,16.27
2022-11-03T05:56:05.660Z,15.40
2022-11-03T05:58:38.082Z,13.67
2022-11-03T06:01:13.576Z,10.47
2022-11-03T06:03:43.401Z,9.63
2022-11-03T06:06:26.855Z,10.27
2022-11-03T06:08:59.162Z,10.07
2022-11-03T06:11:31.348Z,9.43
2022-11-03T06:14:01.806Z,10.23
2022-11-03T06:16:42.808Z,10.00
2022-11-03T06:19:22.867Z,11.07
2022-11-03T06:21:54.558Z,10.53
2022-11-03T06:24:26.879Z,11.00
2022-11-03T06:26:55.362Z,11.40
2022-11-03T06:29:56.319Z,12.97
2022-11-03T06:32:28.678Z,9.50
2022-11-03T06:35:28.305Z,10.00
2022-11-03T06:38:21.849Z,10.80
2022-11-03T06:40:51.692Z,10.30
2022-11-03T06:43:29.246Z,10.30
2022-11-03T06:45:59.378Z,9.30
2022-11-03T06:48:35.769Z,9.53
2022-11-03T06:51:23.581Z,9.13
2022-11-03T06:53:53.893Z,9.47
2022-11-03T06:56:38.733Z,10.20
2022-11-03T06:59:16.646Z,10.43
2022-11-03T07:01:58.568Z,11.20
2022-11-03T07:04:34.101Z,10.50
2022-11-03T07:07:05.506Z,10.90
2022-11-03T07:09:47.307Z,10.90
2022-11-03T07:12:25.419Z,9.60
2022-11-03T07:14:55.224Z,9.93
2022-11-03T07:17:26.030Z,9.37
2022-11-03T07:20:01.835Z,8.63
2022-11-03T07:22:31.397Z,8.57
2022-11-03T07:25:12.453Z,9.37
2022-11-03T07:27:45.943Z,9.23
2022-11-03T07:30:24.751Z,9.13
2022-11-03T07:32:55.980Z,8.37
2022-11-03T07:35:53.422Z,8.20
2022-11-03T07:38:32.676Z,8.90
2022-11-03T07:41:02.393Z,8.50
2022-11-03T07:43:34.788Z,8.07
2022-11-03T07:46:04.856Z,8.13
2022-11-03T07:48:46.254Z,8.33
2022-11-03T07:51:23.329Z,7.67
2022-11-03T07:53:58.911Z,7.70
2022-11-03T07:56:30.933Z,8.10
2022-11-03T07:59:02.347Z,7.60
2022-11-03T08:01:32.679Z,7.90
2022-11-03T08:04:06.081Z,6.77
2022-11-03T08:06:34.607Z,7.53
2022-11-03T08:09:07.170Z,6.87
2022-11-03T08:11:35.832Z,7.23
2022-11-03T08:14:04.964Z,6.70
2022-11-03T08:16:33.947Z,7.20
2022-11-03T08:19:02.627Z,6.50
2022-11-03T08:21:30.786Z,6.00
2022-11-03T08:24:05.900Z,6.03
2022-11-03T08:26:35.464Z,5.90
2022-11-03T08:29:11.086Z,5.63
2022-11-03T08:31:39.192Z,6.40
2022-11-03T08:34:09.511Z,5.77
2022-11-03T08:36:38.675Z,5.77
2022-11-03T08:39:10.751Z,5.00
2022-11-03T08:41:40.896Z,5.73
2022-11-03T08:44:09.846Z,5.40
2022-11-03T08:46:38.678Z,5.50
2022-11-03T08:49:08.148Z,5.30
2022-11-03T08:51:40.127Z,4.33
2022-11-03T08:54:11.903Z,5.80
2022-11-03T08:56:45.398Z,4.77
2022-11-03T08:59:14.606Z,5.10
2022-11-03T09:01:43.769Z,5.37
2022-11-03T09:04:12.974Z,5.27
2022-11-03T09:06:42.746Z,5.43
2022-11-03T09:12:04.904Z,4.47
2022-11-03T09:14:36.979Z,5.07
2022-11-03T09:17:06.465Z,4.60
2022-11-03T09:19:34.896Z,4.13
2022-11-03T09:22:03.692Z,4.13
2022-11-03T09:24:32.910Z,4.87
2022-11-03T09:27:02.473Z,4.50
2022-11-03T09:30:06.527Z,4.80
2022-11-03T09:32:26.832Z,3.80
2022-11-03T09:34:58.265Z,4.00
2022-11-03T09:37:27.022Z,4.67
2022-11-03T09:39:56.741Z,4.20
2022-11-03T09:42:29.283Z,4.37
2022-11-03T09:44:59.742Z,4.33
2022-11-03T09:47:32.619Z,4.07
2022-11-03T09:50:06.321Z,4.17
2022-11-03T09:52:38.880Z,3.93
2022-11-03T09:55:15.110Z,5.30
2022-11-03T09:57:44.898Z,3.60
2022-11-03T10:00:23.413Z,4.40
2022-11-03T10:02:52.710Z,3.93
2022-11-03T10:05:24.881Z,3.70
2022-11-03T10:10:29.919Z,3.60
2022-11-03T10:12:58.410Z,4.60
2022-11-03T10:15:28.963Z,3.67
2022-11-03T10:17:57.961Z,4.00
2022-11-03T10:20:26.539Z,4.27
2022-11-03T10:22:55.935Z,4.93
2022-11-03T10:25:35.113Z,4.57
2022-11-03T10:28:15.398Z,4.87
2022-11-03T10:31:10.594Z,5.23
2022-11-03T10:33:42.018Z,4.97
2022-11-03T10:36:29.411Z,4.47
2022-11-03T10:38:59.567Z,5.00
2022-11-03T10:41:33.128Z,4.10
2022-11-03T10:44:08.774Z,4.50
2022-11-03T10:46:56.305Z,4.93
2022-11-03T10:49:25.054Z,4.10
2022-11-03T10:51:55.003Z,4.37
2022-11-03T10:54:26.191Z,4.53
2022-11-03T10:56:54.775Z,4.63
2022-11-03T10:59:27.423Z,4.03
2022-11-03T11:02:00.039Z,4.80
2022-11-03T11:05:01.507Z,4.50
2022-11-03T11:07:37.485Z,4.90
2022-11-03T11:10:15.168Z,4.17
2022-11-03T11:13:25.681Z,3.67
2022-11-03T11:16:07.054Z,3.13
2022-11-03T11:19:13.681Z,3.53
2022-11-03T11:25:06.185Z,4.13
2022-11-03T11:28:03.421Z,4.13
2022-11-03T11:31:02.199Z,3.10
2022-11-03T11:33:33.116Z,2.87
2022-11-03T11:36:30.224Z,3.10
2022-11-03T11:39:03.956Z,3.00
2022-11-03T11:42:12.437Z,2.40
2022-11-03T11:45:06.487Z,3.20
2022-11-03T11:47:50.474Z,2.20
2022-11-03T11:50:31.834Z,2.17
2022-11-03T11:53:19.982Z,2.90
2022-11-03T11:56:00.614Z,2.40
2022-11-03T11:58:39.201Z,2.50
2022-11-03T12:01:22.043Z,2.70
2022-11-03T12:03:52.292Z,2.47
2022-11-03T12:06:37.187Z,2.40
2022-11-03T12:09:20.473Z,2.77
2022-11-03T12:11:58.484Z,3.00
2022-11-03T12:14:38.898Z,2.47
2022-11-03T12:17:36.589Z,2.47
2022-11-03T12:20:41.069Z,2.67
2022-11-03T12:23:42.513Z,2.70
2022-11-03T12:26:21.045Z,2.90
2022-11-03T12:28:53.135Z,2.70
2022-11-03T12:31:22.976Z,2.77
2022-11-03T12:33:52.007Z,2.90
2022-11-03T12:36:20.506Z,2.73
2022-11-03T12:38:48.988Z,2.80
2022-11-03T12:41:41.674Z,2.97
2022-11-03T12:44:17.296Z,2.63
2022-11-03T12:46:53.396Z,2.57
2022-11-03T12:49:24.161Z,2.37
2022-11-03T12:52:05.359Z,3.83
2022-11-03T12:54:44.585Z,2.63
2022-11-03T12:57:13.818Z,2.63
2022-11-03T12:59:44.095Z,2.93
2022-11-03T13:02:13.018Z,2.80
2022-11-03T13:04:41.674Z,3.13
2022-11-03T13:07:14.524Z,2.37
2022-11-03T13:09:43.185Z,2.73
2022-11-03T13:12:52.905Z,2.70
2022-11-03T13:15:28.868Z,2.70
2022-11-03T13:18:17.087Z,2.63
2022-11-03T13:20:46.100Z,2.40
2022-11-03T13:23:17.447Z,2.90
2022-11-03T13:25:48.744Z,2.40
2022-11-03T13:28:17.466Z,2.90
2022-11-03T13:30:49.850Z,2.27
2022-11-03T13:33:24.235Z,2.93
2022-11-03T13:35:52.883Z,2.80
2022-11-03T13:38:22.302Z,3.20
2022-11-03T13:40:56.962Z,3.20
2022-11-03T13:43:27.179Z,3.00
2022-11-03T13:46:39.813Z,2.87
2022-11-03T13:50:19.108Z,2.87
2022-11-03T13:52:50.639Z,2.73
2022-11-03T13:59:27.647Z,2.53
2022-11-03T14:05:00.032Z,2.30
2022-11-03T14:07:29.874Z,2.77
2022-11-03T14:10:00.856Z,2.77
2022-11-03T14:12:31.060Z,3.20
2022-11-03T14:15:04.809Z,3.40
2022-11-03T14:17:35.019Z,3.07
2022-11-03T14:20:05.040Z,3.23
2022-11-03T14:22:38.694Z,2.87
2022-11-03T14:25:08.015Z,2.63
2022-11-03T14:27:37.088Z,2.93
2022-11-03T14:30:09.078Z,2.77
2022-11-03T14:32:40.237Z,2.23
2022-11-03T14:35:12.127Z,2.50
2022-11-03T14:38:06.646Z,2.57
2022-11-03T14:40:57.799Z,2.40
2022-11-03T14:43:29.971Z,2.10
2022-11-03T14:46:03.283Z,2.63
2022-11-03T14:48:32.079Z,2.30
2022-11-03T14:51:00.174Z,2.27
2022-11-03T14:53:30.254Z,2.30
2022-11-03T14:55:58.903Z,2.30
2022-11-03T14:58:28.433Z,2.33
2022-11-03T15:00:56.663Z,2.30
2022-11-03T15:03:29.247Z,2.33
2022-11-03T15:05:58.531Z,2.40
2022-11-03T15:08:35.467Z,2.60
2022-11-03T15:11:07.880Z,2.60
2022-11-03T15:13:45.818Z,2.70
2022-11-03T15:16:16.645Z,2.90
2022-11-03T15:19:08.623Z,2.83
2022-11-03T15:21:37.117Z,3.17
2022-11-03T15:27:01.005Z,2.27
2022-11-03T15:29:37.595Z,2.97
2022-11-03T15:32:07.165Z,3.10
2022-11-03T15:34:37.119Z,2.47
2022-11-03T15:39:59.964Z,7.90
2022-11-03T15:42:30.377Z,4.63
2022-11-03T15:44:58.661Z,3.70
2022-11-03T15:47:26.789Z,3.20
2022-11-03T15:49:55.124Z,3.33
2022-11-03T15:52:23.548Z,2.90
2022-11-03T15:54:51.684Z,3.10
2022-11-03T15:57:32.214Z,3.60
2022-11-03T16:00:01.071Z,3.77
2022-11-03T16:02:41.460Z,3.87
2022-11-03T16:05:11.248Z,3.37
2022-11-03T16:07:40.384Z,3.00
2022-11-03T16:10:14.192Z,3.17
2022-11-03T16:12:44.513Z,4.00
2022-11-03T16:15:12.887Z,16.17
2022-11-03T16:17:45.892Z,4.80
2022-11-03T16:20:14.396Z,3.83
2022-11-03T16:22:42.736Z,5.70
2022-11-03T16:25:12.889Z,4.10
2022-11-03T16:27:46.659Z,4.30
2022-11-03T16:30:16.166Z,3.30
2022-11-03T16:32:44.969Z,3.57
2022-11-03T16:35:13.343Z,3.83
2022-11-03T16:37:41.687Z,4.23
2022-11-03T16:40:19.054Z,3.90
2022-11-03T16:42:49.445Z,7.93
2022-11-03T16:45:32.395Z,10.70
2022-11-03T16:48:07.557Z,12.10
2022-11-03T16:50:40.102Z,11.50
2022-11-03T16:54:24.875Z,7.33
2022-11-03T16:56:55.067Z,5.87
2022-11-03T16:59:26.552Z,6.50
2022-11-03T17:01:55.501Z,5.63
2022-11-03T17:05:15.635Z,4.97
2022-11-03T17:07:47.492Z,5.47
2022-11-03T17:10:23.653Z,7.93
2022-11-03T17:12:51.832Z,7.83
2022-11-03T17:15:35.867Z,8.17
2022-11-03T17:18:10.603Z,8.80
2022-11-03T17:20:38.894Z,10.40
2022-11-03T17:23:07.305Z,10.97
2022-11-03T17:25:37.270Z,9.63
2022-11-03T17:28:34.319Z,10.47
2022-11-03T17:31:04.154Z,11.67
2022-11-03T17:33:33.295Z,12.97
2022-11-03T17:36:02.757Z,13.00
2022-11-03T17:43:05.717Z,11.47
2022-11-03T17:46:39.323Z,11.13
2022-11-03T17:49:23.503Z,12.37
2022-11-03T17:51:53.814Z,13.70
2022-11-03T17:54:31.408Z,15.40
2022-11-03T17:57:01.160Z,15.60
2022-11-03T17:59:33.217Z,14.27
2022-11-03T18:02:17.444Z,13.37
2022-11-03T18:04:47.895Z,12.97
2022-11-03T18:07:21.900Z,12.57
2022-11-03T18:09:50.616Z,12.93
2022-11-03T18:12:39.167Z,12.80
2022-11-03T18:15:12.192Z,13.83
2022-11-03T18:17:40.643Z,18.17
2022-11-03T18:20:17.819Z,14.63
2022-11-03T18:22:46.608Z,13.23
2022-11-03T18:25:18.551Z,12.70
2022-11-03T18:27:46.792Z,14.03
2022-11-03T18:30:20.419Z,12.93
2022-11-03T18:33:18.565Z,12.93
2022-11-03T18:35:48.344Z,12.83
2022-11-03T18:38:36.094Z,13.13
2022-11-03T18:41:31.467Z,12.53
2022-11-03T18:44:04.199Z,11.40
2022-11-03T18:46:32.667Z,11.83
2022-11-03T18:49:00.972Z,11.87
2022-11-03T18:51:32.558Z,10.90
2022-11-03T18:54:02.028Z,11.13
2022-11-03T18:56:34.148Z,10.73
2022-11-03T18:59:06.771Z,10.07
2022-11-03T19:01:35.339Z,10.37
2022-11-03T19:04:03.644Z,10.33
2022-11-03T19:06:33.813Z,10.20
2022-11-03T19:09:02.280Z,9.93
2022-11-03T19:11:37.290Z,9.57
2022-11-03T19:14:08.076Z,9.27
2022-11-03T19:16:37.877Z,13.30
2022-11-03T19:19:09.768Z,11.47
2022-11-03T19:21:39.369Z,9.47
2022-11-03T19:24:08.758Z,9.30
2022-11-03T19:26:44.724Z,9.47
2022-11-03T19:29:26.419Z,9.53
2022-11-03T19:31:55.159Z,8.97
2022-11-03T19:34:27.419Z,9.60
2022-11-03T19:36:59.331Z,9.83
2022-11-03T19:39:33.499Z,8.73
2022-11-03T19:42:20.666Z,9.63
2022-11-03T19:44:53.222Z,9.03
2022-11-03T19:47:25.017Z,9.47
2022-11-03T19:50:22.538Z,9.50
2022-11-03T19:53:11.054Z,8.87
2022-11-03T19:55:43.216Z,10.83
2022-11-03T19:58:18.965Z,9.50
2022-11-03T20:00:50.481Z,8.93
2022-11-03T20:03:19.038Z,9.10
2022-11-03T20:05:51.559Z,10.17
2022-11-03T20:08:24.292Z,9.37
2022-11-03T20:10:53.721Z,10.80
2022-11-03T20:13:27.288Z,12.23
2022-11-03T20:16:00.734Z,15.53
2022-11-03T20:18:29.771Z,14.00
2022-11-03T20:21:01.256Z,13.87
2022-11-03T20:23:33.847Z,12.90
2022-11-03T20:26:03.633Z,12.30
2022-11-03T20:28:33.333Z,12.47
2022-11-03T20:31:03.794Z,12.60
2022-11-03T20:33:32.590Z,25.13
2022-11-03T20:39:47.178Z,13.50
2022-11-03T20:42:22.294Z,12.60
2022-11-03T20:44:53.272Z,11.90
2022-11-03T20:47:24.394Z,11.77
2022-11-03T20:49:53.278Z,11.97
2022-11-03T20:52:48.214Z,10.50
2022-11-03T20:55:26.872Z,10.97
2022-11-03T20:57:55.791Z,10.40
2022-11-03T21:00:26.839Z,16.27
2022-11-03T21:02:57.229Z,16.27
2022-11-03T21:05:29.306Z,13.30
2022-11-03T21:07:58.068Z,12.27
2022-11-03T21:10:44.299Z,10.97
2022-11-03T21:13:18.011Z,10.73
2022-11-03T21:16:25.297Z,10.30
2022-11-03T21:19:12.022Z,10.13
2022-11-03T21:21:41.052Z,10.27
2022-11-03T21:24:34.507Z,10.63
2022-11-03T21:30:49.007Z,10.17
2022-11-03T21:33:27.572Z,10.70
2022-11-03T21:36:00.223Z,10.60
2022-11-03T21:38:33.210Z,11.60
2022-11-03T21:41:16.190Z,10.57
2022-11-03T21:44:03.069Z,11.53
2022-11-03T21:46:38.734Z,10.60
2022-11-03T21:52:48.106Z,11.13
2022-11-03T21:55:21.336Z,16.60
2022-11-03T21:57:55.786Z,13.47
2022-11-03T22:00:34.076Z,12.50
2022-11-03T22:03:03.204Z,11.20
2022-11-03T22:05:35.445Z,11.43
2022-11-03T22:08:08.632Z,10.50
2022-11-03T22:10:43.368Z,9.90
2022-11-03T22:13:17.879Z,10.40
2022-11-03T22:19:58.528Z,10.33
2022-11-03T22:27:08.481Z,9.40
2022-11-03T22:32:54.052Z,9.17
2022-11-03T22:35:42.692Z,10.77
2022-11-03T22:38:15.597Z,12.40
2022-11-03T22:41:04.304Z,14.13
2022-11-03T22:43:54.063Z,15.57
2022-11-03T22:46:23.322Z,10.97
2022-11-03T22:48:52.894Z,14.37
2022-11-03T22:51:22.242Z,17.83
2022-11-03T22:54:08.093Z,13.43
2022-11-03T22:56:37.577Z,12.93
2022-11-03T22:59:06.404Z,10.43
2022-11-03T23:01:36.382Z,9.80
2022-11-03T23:04:13.682Z,8.93
2022-11-03T23:06:52.866Z,9.43
2022-11-03T23:09:21.593Z,9.07
2022-11-03T23:11:50.493Z,9.90
2022-11-03T23:14:50.491Z,10.17
2022-11-03T23:17:20.298Z,12.87
2022-11-03T23:20:12.988Z,15.13
2022-11-03T23:22:56.303Z,15.97
2022-11-03T23:25:41.208Z,13.97
2022-11-03T23:28:18.276Z,9.90
2022-11-03T23:30:47.425Z,9.47
2022-11-03T23:33:29.722Z,13.23
2022-11-03T23:36:14.200Z,13.67
2022-11-03T23:38:47.802Z,16.90
2022-11-03T23:41:33.325Z,31.77
2022-11-03T23:44:05.162Z,31.67
2022-11-03T23:46:53.140Z,23.17
2022-11-03T23:49:22.568Z,23.10
2022-11-03T23:52:00.502Z,19.80
2022-11-03T23:54:29.103Z,14.03
2022-11-03T23:57:16.282Z,9.53
2022-11-03T23:59:46.796Z,11.20
